sensor_id;sensor_type;location;lat;lon;timestamp;temperature;humidity
56512;DHT22;42408;53.238;5.686;2023-07-13T00:00:25;17.40;99.90
56512;DHT22;42408;53.238;5.686;2023-07-13T00:02:51;17.30;99.90
56512;DHT22;42408;53.238;5.686;2023-07-13T00:05:20;17.30;99.90
56512;DHT22;42408;53.238;5.686;2023-07-13T00:07:46;17.30;99.90
56512;DHT22;42408;53.238;5.686;2023-07-13T00:10:11;17.30;99.90
56512;DHT22;42408;53.238;5.686;2023-07-13T00:12:37;17.20;99.90
56512;DHT22;42408;53.238;5.686;2023-07-13T00:15:05;17.20;99.90
56512;DHT22;42408;53.238;5.686;2023-07-13T00:17:31;17.20;99.90
56512;DHT22;42408;53.238;5.686;2023-07-13T00:19:57;17.10;99.90
56512;DHT22;42408;53.238;5.686;2023-07-13T00:22:24;17.10;99.90
56512;DHT22;42408;53.238;5.686;2023-07-13T00:24:51;17.10;99.90
56512;DHT22;42408;53.238;5.686;2023-07-13T00:27:17;17.10;99.90
56512;DHT22;42408;53.238;5.686;2023-07-13T00:29:43;17.10;99.90
56512;DHT22;42408;53.238;5.686;2023-07-13T00:32:10;17.00;99.90
56512;DHT22;42408;53.238;5.686;2023-07-13T00:34:37;17.10;99.90
56512;DHT22;42408;53.238;5.686;2023-07-13T00:37:03;17.00;99.90
56512;DHT22;42408;53.238;5.686;2023-07-13T00:39:28;17.10;99.90
56512;DHT22;42408;53.238;5.686;2023-07-13T00:41:54;17.00;99.90
56512;DHT22;42408;53.238;5.686;2023-07-13T00:44:20;17.00;99.90
56512;DHT22;42408;53.238;5.686;2023-07-13T00:46:48;17.00;99.90
56512;DHT22;42408;53.238;5.686;2023-07-13T00:49:16;17.00;99.90
56512;DHT22;42408;53.238;5.686;2023-07-13T00:54:09;17.00;99.90
56512;DHT22;42408;53.238;5.686;2023-07-13T00:56:36;17.00;99.90
56512;DHT22;42408;53.238;5.686;2023-07-13T00:59:03;17.00;99.90
56512;DHT22;42408;53.238;5.686;2023-07-13T01:01:29;16.90;99.90
56512;DHT22;42408;53.238;5.686;2023-07-13T01:03:54;16.90;99.90
56512;DHT22;42408;53.238;5.686;2023-07-13T01:06:20;16.90;99.90
56512;DHT22;42408;53.238;5.686;2023-07-13T01:08:46;16.90;99.90
56512;DHT22;42408;53.238;5.686;2023-07-13T01:11:12;16.90;99.90
56512;DHT22;42408;53.238;5.686;2023-07-13T01:13:43;16.90;99.90
56512;DHT22;42408;53.238;5.686;2023-07-13T01:16:13;16.90;99.90
56512;DHT22;42408;53.238;5.686;2023-07-13T01:18:40;16.90;99.90
56512;DHT22;42408;53.238;5.686;2023-07-13T01:21:05;16.90;99.90
56512;DHT22;42408;53.238;5.686;2023-07-13T01:23:31;16.90;99.90
56512;DHT22;42408;53.238;5.686;2023-07-13T01:25:58;16.90;99.90
56512;DHT22;42408;53.238;5.686;2023-07-13T01:28:24;16.90;99.90
56512;DHT22;42408;53.238;5.686;2023-07-13T01:30:52;16.80;99.90
56512;DHT22;42408;53.238;5.686;2023-07-13T01:33:18;16.80;99.90
56512;DHT22;42408;53.238;5.686;2023-07-13T01:35:47;16.80;99.90
56512;DHT22;42408;53.238;5.686;2023-07-13T01:38:16;16.80;99.90
56512;DHT22;42408;53.238;5.686;2023-07-13T01:40:42;16.90;99.90
56512;DHT22;42408;53.238;5.686;2023-07-13T01:43:09;16.80;99.90
56512;DHT22;42408;53.238;5.686;2023-07-13T01:45:34;16.90;99.90
56512;DHT22;42408;53.238;5.686;2023-07-13T01:48:00;16.90;99.90
56512;DHT22;42408;53.238;5.686;2023-07-13T01:50:26;17.00;99.90
56512;DHT22;42408;53.238;5.686;2023-07-13T01:52:52;17.00;99.90
56512;DHT22;42408;53.238;5.686;2023-07-13T01:55:18;17.10;99.90
56512;DHT22;42408;53.238;5.686;2023-07-13T01:57:44;17.10;99.90
56512;DHT22;42408;53.238;5.686;2023-07-13T02:00:09;17.00;99.90
56512;DHT22;42408;53.238;5.686;2023-07-13T02:02:35;17.10;99.90
56512;DHT22;42408;53.238;5.686;2023-07-13T02:05:01;17.10;99.90
56512;DHT22;42408;53.238;5.686;2023-07-13T02:07:27;17.10;99.90
56512;DHT22;42408;53.238;5.686;2023-07-13T02:09:52;17.10;99.90
56512;DHT22;42408;53.238;5.686;2023-07-13T02:12:19;17.10;99.90
56512;DHT22;42408;53.238;5.686;2023-07-13T02:14:44;17.10;99.90
56512;DHT22;42408;53.238;5.686;2023-07-13T02:17:10;17.10;99.90
56512;DHT22;42408;53.238;5.686;2023-07-13T02:19:35;17.10;99.90
56512;DHT22;42408;53.238;5.686;2023-07-13T02:22:01;17.10;99.90
56512;DHT22;42408;53.238;5.686;2023-07-13T02:24:27;17.10;99.90
56512;DHT22;42408;53.238;5.686;2023-07-13T02:26:53;17.10;99.90
56512;DHT22;42408;53.238;5.686;2023-07-13T02:29:18;17.10;99.90
56512;DHT22;42408;53.238;5.686;2023-07-13T02:31:44;17.10;99.90
56512;DHT22;42408;53.238;5.686;2023-07-13T02:34:09;17.10;99.90
56512;DHT22;42408;53.238;5.686;2023-07-13T02:36:35;17.10;99.90
56512;DHT22;42408;53.238;5.686;2023-07-13T02:39:01;17.10;99.90
56512;DHT22;42408;53.238;5.686;2023-07-13T02:41:28;17.10;99.90
56512;DHT22;42408;53.238;5.686;2023-07-13T02:43:55;17.10;99.90
56512;DHT22;42408;53.238;5.686;2023-07-13T02:46:28;17.10;99.90
56512;DHT22;42408;53.238;5.686;2023-07-13T02:48:54;17.10;99.90
56512;DHT22;42408;53.238;5.686;2023-07-13T02:51:19;17.10;99.90
56512;DHT22;42408;53.238;5.686;2023-07-13T02:53:45;17.10;99.90
56512;DHT22;42408;53.238;5.686;2023-07-13T02:56:10;17.00;99.90
56512;DHT22;42408;53.238;5.686;2023-07-13T02:58:36;17.00;99.90
56512;DHT22;42408;53.238;5.686;2023-07-13T03:01:10;17.10;99.90
56512;DHT22;42408;53.238;5.686;2023-07-13T03:03:36;17.00;99.90
56512;DHT22;42408;53.238;5.686;2023-07-13T03:06:03;17.00;99.90
56512;DHT22;42408;53.238;5.686;2023-07-13T03:08:30;17.00;99.90
56512;DHT22;42408;53.238;5.686;2023-07-13T03:11:03;17.00;99.90
56512;DHT22;42408;53.238;5.686;2023-07-13T03:13:29;17.00;99.90
56512;DHT22;42408;53.238;5.686;2023-07-13T03:15:54;17.00;99.90
56512;DHT22;42408;53.238;5.686;2023-07-13T03:18:20;17.00;99.90
56512;DHT22;42408;53.238;5.686;2023-07-13T03:20:45;17.00;99.90
56512;DHT22;42408;53.238;5.686;2023-07-13T03:23:11;16.90;99.90
56512;DHT22;42408;53.238;5.686;2023-07-13T03:25:37;16.90;99.90
56512;DHT22;42408;53.238;5.686;2023-07-13T03:28:02;17.00;99.90
56512;DHT22;42408;53.238;5.686;2023-07-13T03:30:28;16.90;99.90
56512;DHT22;42408;53.238;5.686;2023-07-13T03:32:53;16.90;99.90
56512;DHT22;42408;53.238;5.686;2023-07-13T03:35:19;16.90;99.90
56512;DHT22;42408;53.238;5.686;2023-07-13T03:37:44;16.80;99.90
56512;DHT22;42408;53.238;5.686;2023-07-13T03:40:10;16.80;99.90
56512;DHT22;42408;53.238;5.686;2023-07-13T03:42:36;16.90;99.90
56512;DHT22;42408;53.238;5.686;2023-07-13T03:45:02;16.80;99.90
56512;DHT22;42408;53.238;5.686;2023-07-13T03:47:28;16.80;99.90
56512;DHT22;42408;53.238;5.686;2023-07-13T03:49:53;16.80;99.90
56512;DHT22;42408;53.238;5.686;2023-07-13T03:52:19;16.80;99.90
56512;DHT22;42408;53.238;5.686;2023-07-13T03:54:44;16.80;99.90
56512;DHT22;42408;53.238;5.686;2023-07-13T03:57:10;16.80;99.90
56512;DHT22;42408;53.238;5.686;2023-07-13T03:59:36;16.80;99.90
56512;DHT22;42408;53.238;5.686;2023-07-13T04:02:01;16.80;99.90
56512;DHT22;42408;53.238;5.686;2023-07-13T04:04:27;16.80;99.90
56512;DHT22;42408;53.238;5.686;2023-07-13T04:06:52;16.80;99.90
56512;DHT22;42408;53.238;5.686;2023-07-13T04:09:18;16.80;99.90
56512;DHT22;42408;53.238;5.686;2023-07-13T04:11:44;16.80;99.90
56512;DHT22;42408;53.238;5.686;2023-07-13T04:14:09;16.80;99.90
56512;DHT22;42408;53.238;5.686;2023-07-13T04:16:35;16.80;99.90
56512;DHT22;42408;53.238;5.686;2023-07-13T04:19:00;16.70;99.90
56512;DHT22;42408;53.238;5.686;2023-07-13T04:21:27;16.70;99.90
56512;DHT22;42408;53.238;5.686;2023-07-13T04:23:53;16.70;99.90
56512;DHT22;42408;53.238;5.686;2023-07-13T04:26:19;16.70;99.90
56512;DHT22;42408;53.238;5.686;2023-07-13T04:28:48;16.70;99.90
56512;DHT22;42408;53.238;5.686;2023-07-13T04:31:14;16.70;99.90
56512;DHT22;42408;53.238;5.686;2023-07-13T04:33:40;16.70;99.90
56512;DHT22;42408;53.238;5.686;2023-07-13T04:36:05;16.70;99.90
56512;DHT22;42408;53.238;5.686;2023-07-13T04:38:31;16.60;99.90
56512;DHT22;42408;53.238;5.686;2023-07-13T04:40:58;16.60;99.90
56512;DHT22;42408;53.238;5.686;2023-07-13T04:43:26;16.60;99.90
56512;DHT22;42408;53.238;5.686;2023-07-13T04:45:53;16.60;99.90
56512;DHT22;42408;53.238;5.686;2023-07-13T04:48:18;16.60;99.90
56512;DHT22;42408;53.238;5.686;2023-07-13T04:50:44;16.60;99.90
56512;DHT22;42408;53.238;5.686;2023-07-13T04:53:10;16.60;99.90
56512;DHT22;42408;53.238;5.686;2023-07-13T04:55:36;16.70;99.90
56512;DHT22;42408;53.238;5.686;2023-07-13T04:58:01;16.60;99.90
56512;DHT22;42408;53.238;5.686;2023-07-13T05:00:28;16.60;99.90
56512;DHT22;42408;53.238;5.686;2023-07-13T05:02:57;16.60;99.90
56512;DHT22;42408;53.238;5.686;2023-07-13T05:05:23;16.70;99.90
56512;DHT22;42408;53.238;5.686;2023-07-13T05:07:49;16.70;99.90
56512;DHT22;42408;53.238;5.686;2023-07-13T05:10:14;16.70;99.90
56512;DHT22;42408;53.238;5.686;2023-07-13T05:12:40;16.70;99.90
56512;DHT22;42408;53.238;5.686;2023-07-13T05:15:06;16.70;99.90
56512;DHT22;42408;53.238;5.686;2023-07-13T05:17:32;16.80;99.90
56512;DHT22;42408;53.238;5.686;2023-07-13T05:19:57;16.80;99.90
56512;DHT22;42408;53.238;5.686;2023-07-13T05:22:23;16.80;99.90
56512;DHT22;42408;53.238;5.686;2023-07-13T05:24:48;16.90;99.90
56512;DHT22;42408;53.238;5.686;2023-07-13T05:27:14;16.90;99.90
56512;DHT22;42408;53.238;5.686;2023-07-13T05:29:40;17.00;99.90
56512;DHT22;42408;53.238;5.686;2023-07-13T05:32:06;17.00;99.90
56512;DHT22;42408;53.238;5.686;2023-07-13T05:34:31;17.10;99.90
56512;DHT22;42408;53.238;5.686;2023-07-13T05:36:57;17.00;99.90
56512;DHT22;42408;53.238;5.686;2023-07-13T05:39:23;17.10;99.90
56512;DHT22;42408;53.238;5.686;2023-07-13T05:41:48;17.20;99.90
56512;DHT22;42408;53.238;5.686;2023-07-13T05:44:14;17.20;99.90
56512;DHT22;42408;53.238;5.686;2023-07-13T05:46:40;17.20;99.90
56512;DHT22;42408;53.238;5.686;2023-07-13T05:49:05;17.30;99.90
56512;DHT22;42408;53.238;5.686;2023-07-13T05:51:31;17.30;99.90
56512;DHT22;42408;53.238;5.686;2023-07-13T05:53:57;17.40;99.90
56512;DHT22;42408;53.238;5.686;2023-07-13T05:56:22;17.40;99.90
56512;DHT22;42408;53.238;5.686;2023-07-13T05:58:48;17.40;99.90
56512;DHT22;42408;53.238;5.686;2023-07-13T06:01:14;17.50;99.90
56512;DHT22;42408;53.238;5.686;2023-07-13T06:03:40;17.50;99.90
56512;DHT22;42408;53.238;5.686;2023-07-13T06:06:06;17.50;99.90
56512;DHT22;42408;53.238;5.686;2023-07-13T06:08:32;17.60;99.90
56512;DHT22;42408;53.238;5.686;2023-07-13T06:13:32;17.70;99.90
56512;DHT22;42408;53.238;5.686;2023-07-13T06:15:59;17.70;99.90
56512;DHT22;42408;53.238;5.686;2023-07-13T06:18:24;17.80;99.90
56512;DHT22;42408;53.238;5.686;2023-07-13T06:20:50;17.80;99.90
56512;DHT22;42408;53.238;5.686;2023-07-13T06:23:15;17.90;99.90
56512;DHT22;42408;53.238;5.686;2023-07-13T06:25:41;17.90;99.90
56512;DHT22;42408;53.238;5.686;2023-07-13T06:28:08;18.00;99.90
56512;DHT22;42408;53.238;5.686;2023-07-13T06:30:33;18.00;99.90
56512;DHT22;42408;53.238;5.686;2023-07-13T06:32:59;18.10;99.90
56512;DHT22;42408;53.238;5.686;2023-07-13T06:35:24;18.20;99.90
56512;DHT22;42408;53.238;5.686;2023-07-13T06:37:50;18.20;99.90
56512;DHT22;42408;53.238;5.686;2023-07-13T06:40:16;18.40;99.90
56512;DHT22;42408;53.238;5.686;2023-07-13T06:42:42;18.90;99.90
56512;DHT22;42408;53.238;5.686;2023-07-13T06:45:08;19.50;99.90
56512;DHT22;42408;53.238;5.686;2023-07-13T06:47:33;20.10;99.90
56512;DHT22;42408;53.238;5.686;2023-07-13T06:50:00;20.20;99.90
56512;DHT22;42408;53.238;5.686;2023-07-13T06:52:25;20.50;99.90
56512;DHT22;42408;53.238;5.686;2023-07-13T06:54:51;21.30;99.90
56512;DHT22;42408;53.238;5.686;2023-07-13T06:57:16;22.40;99.90
56512;DHT22;42408;53.238;5.686;2023-07-13T06:59:42;23.00;99.90
56512;DHT22;42408;53.238;5.686;2023-07-13T07:02:09;23.60;99.90
56512;DHT22;42408;53.238;5.686;2023-07-13T07:04:35;23.70;99.90
56512;DHT22;42408;53.238;5.686;2023-07-13T07:07:01;24.00;99.90
56512;DHT22;42408;53.238;5.686;2023-07-13T07:09:26;24.20;99.90
56512;DHT22;42408;53.238;5.686;2023-07-13T07:11:52;24.60;99.90
56512;DHT22;42408;53.238;5.686;2023-07-13T07:14:18;24.60;99.90
56512;DHT22;42408;53.238;5.686;2023-07-13T07:16:43;25.00;99.90
56512;DHT22;42408;53.238;5.686;2023-07-13T07:19:09;24.90;99.90
56512;DHT22;42408;53.238;5.686;2023-07-13T07:21:34;24.90;99.90
56512;DHT22;42408;53.238;5.686;2023-07-13T07:24:00;25.10;99.90
56512;DHT22;42408;53.238;5.686;2023-07-13T07:26:25;25.00;99.90
56512;DHT22;42408;53.238;5.686;2023-07-13T07:28:51;24.90;99.90
56512;DHT22;42408;53.238;5.686;2023-07-13T07:31:17;24.70;99.90
56512;DHT22;42408;53.238;5.686;2023-07-13T07:33:42;24.70;99.90
56512;DHT22;42408;53.238;5.686;2023-07-13T07:36:08;24.70;99.90
56512;DHT22;42408;53.238;5.686;2023-07-13T07:38:34;24.70;99.90
56512;DHT22;42408;53.238;5.686;2023-07-13T07:41:02;24.80;99.90
56512;DHT22;42408;53.238;5.686;2023-07-13T07:43:28;25.00;99.80
56512;DHT22;42408;53.238;5.686;2023-07-13T07:45:53;25.40;99.90
56512;DHT22;42408;53.238;5.686;2023-07-13T07:48:19;25.50;99.00
56512;DHT22;42408;53.238;5.686;2023-07-13T07:50:44;25.40;99.60
56512;DHT22;42408;53.238;5.686;2023-07-13T07:53:10;25.50;98.70
56512;DHT22;42408;53.238;5.686;2023-07-13T07:55:36;25.60;99.50
56512;DHT22;42408;53.238;5.686;2023-07-13T07:58:02;25.30;99.30
56512;DHT22;42408;53.238;5.686;2023-07-13T08:00:27;24.90;99.00
56512;DHT22;42408;53.238;5.686;2023-07-13T08:02:56;24.50;99.90
56512;DHT22;42408;53.238;5.686;2023-07-13T08:05:22;24.50;99.90
56512;DHT22;42408;53.238;5.686;2023-07-13T08:07:47;24.70;99.90
56512;DHT22;42408;53.238;5.686;2023-07-13T08:10:13;24.90;99.90
56512;DHT22;42408;53.238;5.686;2023-07-13T08:12:39;25.30;99.90
56512;DHT22;42408;53.238;5.686;2023-07-13T08:15:05;25.50;99.40
56512;DHT22;42408;53.238;5.686;2023-07-13T08:17:31;25.50;98.70
56512;DHT22;42408;53.238;5.686;2023-07-13T08:19:57;25.40;98.00
56512;DHT22;42408;53.238;5.686;2023-07-13T08:22:22;25.20;97.80
56512;DHT22;42408;53.238;5.686;2023-07-13T08:24:48;25.20;98.10
56512;DHT22;42408;53.238;5.686;2023-07-13T08:27:20;25.00;98.30
56512;DHT22;42408;53.238;5.686;2023-07-13T08:29:47;24.90;99.10
56512;DHT22;42408;53.238;5.686;2023-07-13T08:32:13;24.90;99.70
56512;DHT22;42408;53.238;5.686;2023-07-13T08:34:39;25.00;99.80
56512;DHT22;42408;53.238;5.686;2023-07-13T08:37:05;25.30;99.40
56512;DHT22;42408;53.238;5.686;2023-07-13T08:39:31;25.60;99.90
56512;DHT22;42408;53.238;5.686;2023-07-13T08:41:59;25.70;99.70
56512;DHT22;42408;53.238;5.686;2023-07-13T08:47:07;25.80;98.80
56512;DHT22;42408;53.238;5.686;2023-07-13T08:49:33;25.90;98.50
56512;DHT22;42408;53.238;5.686;2023-07-13T08:52:11;26.00;98.50
56512;DHT22;42408;53.238;5.686;2023-07-13T08:54:41;26.30;98.50
56512;DHT22;42408;53.238;5.686;2023-07-13T08:57:15;26.40;97.80
56512;DHT22;42408;53.238;5.686;2023-07-13T08:59:42;26.30;95.20
56512;DHT22;42408;53.238;5.686;2023-07-13T09:05:03;26.70;97.60
56512;DHT22;42408;53.238;5.686;2023-07-13T09:12:31;26.60;96.10
56512;DHT22;42408;53.238;5.686;2023-07-13T09:14:59;26.50;96.60
56512;DHT22;42408;53.238;5.686;2023-07-13T09:17:29;26.40;96.30
56512;DHT22;42408;53.238;5.686;2023-07-13T09:19:58;26.50;96.70
56512;DHT22;42408;53.238;5.686;2023-07-13T09:22:25;26.60;96.90
56512;DHT22;42408;53.238;5.686;2023-07-13T09:24:55;26.70;95.30
56512;DHT22;42408;53.238;5.686;2023-07-13T09:27:24;26.70;94.60
56512;DHT22;42408;53.238;5.686;2023-07-13T09:32:37;26.70;94.70
56512;DHT22;42408;53.238;5.686;2023-07-13T09:35:11;26.80;95.60
56512;DHT22;42408;53.238;5.686;2023-07-13T09:37:38;26.70;95.00
56512;DHT22;42408;53.238;5.686;2023-07-13T09:40:08;26.60;94.40
56512;DHT22;42408;53.238;5.686;2023-07-13T09:42:36;26.60;94.40
56512;DHT22;42408;53.238;5.686;2023-07-13T09:45:03;26.60;93.90
56512;DHT22;42408;53.238;5.686;2023-07-13T09:47:38;26.30;93.90
56512;DHT22;42408;53.238;5.686;2023-07-13T09:50:09;25.90;94.90
56512;DHT22;42408;53.238;5.686;2023-07-13T09:52:48;25.70;95.00
56512;DHT22;42408;53.238;5.686;2023-07-13T09:57:54;25.40;95.90
56512;DHT22;42408;53.238;5.686;2023-07-13T10:00:21;25.30;96.60
56512;DHT22;42408;53.238;5.686;2023-07-13T10:02:49;25.20;96.10
56512;DHT22;42408;53.238;5.686;2023-07-13T10:05:23;25.20;96.00
56512;DHT22;42408;53.238;5.686;2023-07-13T10:07:50;25.20;97.90
56512;DHT22;42408;53.238;5.686;2023-07-13T10:10:17;25.20;95.40
56512;DHT22;42408;53.238;5.686;2023-07-13T10:12:43;25.30;95.60
56512;DHT22;42408;53.238;5.686;2023-07-13T10:15:13;25.20;95.10
56512;DHT22;42408;53.238;5.686;2023-07-13T10:17:40;25.30;96.70
56512;DHT22;42408;53.238;5.686;2023-07-13T10:20:06;25.40;95.70
56512;DHT22;42408;53.238;5.686;2023-07-13T10:25:13;25.10;95.40
56512;DHT22;42408;53.238;5.686;2023-07-13T10:27:40;24.90;96.10
56512;DHT22;42408;53.238;5.686;2023-07-13T10:32:40;24.40;97.70
56512;DHT22;42408;53.238;5.686;2023-07-13T10:35:08;24.50;96.50
56512;DHT22;42408;53.238;5.686;2023-07-13T10:37:39;24.40;96.90
56512;DHT22;42408;53.238;5.686;2023-07-13T10:40:06;24.40;96.10
56512;DHT22;42408;53.238;5.686;2023-07-13T10:42:39;24.30;97.00
56512;DHT22;42408;53.238;5.686;2023-07-13T10:45:19;24.40;96.20
56512;DHT22;42408;53.238;5.686;2023-07-13T10:47:45;24.60;96.40
56512;DHT22;42408;53.238;5.686;2023-07-13T10:50:15;24.70;96.70
56512;DHT22;42408;53.238;5.686;2023-07-13T10:52:46;24.90;97.70
56512;DHT22;42408;53.238;5.686;2023-07-13T10:57:59;25.40;98.10
56512;DHT22;42408;53.238;5.686;2023-07-13T11:00:25;25.70;96.10
56512;DHT22;42408;53.238;5.686;2023-07-13T11:03:00;25.70;95.20
56512;DHT22;42408;53.238;5.686;2023-07-13T11:05:32;25.60;95.90
56512;DHT22;42408;53.238;5.686;2023-07-13T11:08:16;25.40;94.50
56512;DHT22;42408;53.238;5.686;2023-07-13T11:13:36;24.90;95.20
56512;DHT22;42408;53.238;5.686;2023-07-13T11:15:57;24.90;94.20
56512;DHT22;42408;53.238;5.686;2023-07-13T11:18:23;24.60;96.50
56512;DHT22;42408;53.238;5.686;2023-07-13T11:20:50;24.60;96.60
56512;DHT22;42408;53.238;5.686;2023-07-13T11:25:43;24.60;96.90
56512;DHT22;42408;53.238;5.686;2023-07-13T11:35:42;24.00;96.10
56512;DHT22;42408;53.238;5.686;2023-07-13T11:38:18;23.70;96.70
56512;DHT22;42408;53.238;5.686;2023-07-13T11:40:45;23.40;97.60
56512;DHT22;42408;53.238;5.686;2023-07-13T11:43:12;23.20;98.60
56512;DHT22;42408;53.238;5.686;2023-07-13T11:45:38;22.90;98.40
56512;DHT22;42408;53.238;5.686;2023-07-13T11:48:04;22.70;99.40
56512;DHT22;42408;53.238;5.686;2023-07-13T11:50:29;22.60;99.60
56512;DHT22;42408;53.238;5.686;2023-07-13T11:52:57;22.40;99.40
56512;DHT22;42408;53.238;5.686;2023-07-13T11:55:24;22.30;99.70
56512;DHT22;42408;53.238;5.686;2023-07-13T11:57:51;22.30;99.90
56512;DHT22;42408;53.238;5.686;2023-07-13T12:00:21;22.50;99.90
56512;DHT22;42408;53.238;5.686;2023-07-13T12:02:48;22.70;99.90
56512;DHT22;42408;53.238;5.686;2023-07-13T12:05:15;22.70;99.90
56512;DHT22;42408;53.238;5.686;2023-07-13T12:07:43;22.70;99.90
56512;DHT22;42408;53.238;5.686;2023-07-13T12:12:37;22.80;99.90
56512;DHT22;42408;53.238;5.686;2023-07-13T12:15:06;23.10;99.90
56512;DHT22;42408;53.238;5.686;2023-07-13T12:17:34;23.50;99.90
56512;DHT22;42408;53.238;5.686;2023-07-13T12:20:00;23.70;99.60
56512;DHT22;42408;53.238;5.686;2023-07-13T12:22:26;23.80;99.70
56512;DHT22;42408;53.238;5.686;2023-07-13T12:24:52;24.00;99.90
56512;DHT22;42408;53.238;5.686;2023-07-13T12:27:23;24.30;99.20
56512;DHT22;42408;53.238;5.686;2023-07-13T12:29:51;24.40;98.70
56512;DHT22;42408;53.238;5.686;2023-07-13T12:32:19;24.60;96.60
56512;DHT22;42408;53.238;5.686;2023-07-13T12:37:19;24.70;97.30
56512;DHT22;42408;53.238;5.686;2023-07-13T12:39:48;24.80;97.90
56512;DHT22;42408;53.238;5.686;2023-07-13T12:44:40;25.00;97.30
56512;DHT22;42408;53.238;5.686;2023-07-13T12:47:09;25.10;96.70
56512;DHT22;42408;53.238;5.686;2023-07-13T12:49:40;25.00;96.60
56512;DHT22;42408;53.238;5.686;2023-07-13T12:52:16;25.10;95.60
56512;DHT22;42408;53.238;5.686;2023-07-13T12:54:42;25.20;96.20
56512;DHT22;42408;53.238;5.686;2023-07-13T12:57:17;25.40;97.60
56512;DHT22;42408;53.238;5.686;2023-07-13T12:59:43;25.40;97.00
56512;DHT22;42408;53.238;5.686;2023-07-13T13:02:20;25.50;97.10
56512;DHT22;42408;53.238;5.686;2023-07-13T13:04:48;25.50;97.10
56512;DHT22;42408;53.238;5.686;2023-07-13T13:07:14;25.50;97.60
56512;DHT22;42408;53.238;5.686;2023-07-13T13:09:40;25.40;96.60
56512;DHT22;42408;53.238;5.686;2023-07-13T13:12:06;25.20;97.00
56512;DHT22;42408;53.238;5.686;2023-07-13T13:14:32;25.10;96.90
56512;DHT22;42408;53.238;5.686;2023-07-13T13:16:57;25.10;97.70
56512;DHT22;42408;53.238;5.686;2023-07-13T13:19:24;25.20;97.20
56512;DHT22;42408;53.238;5.686;2023-07-13T13:21:53;25.30;97.20
56512;DHT22;42408;53.238;5.686;2023-07-13T13:24:20;25.30;97.40
56512;DHT22;42408;53.238;5.686;2023-07-13T13:26:46;25.20;97.40
56512;DHT22;42408;53.238;5.686;2023-07-13T13:29:13;24.90;98.50
56512;DHT22;42408;53.238;5.686;2023-07-13T13:31:39;24.70;97.60
56512;DHT22;42408;53.238;5.686;2023-07-13T13:34:07;24.50;97.40
56512;DHT22;42408;53.238;5.686;2023-07-13T13:36:33;24.30;97.80
56512;DHT22;42408;53.238;5.686;2023-07-13T13:38:59;24.30;98.70
56512;DHT22;42408;53.238;5.686;2023-07-13T13:41:27;24.40;97.70
56512;DHT22;42408;53.238;5.686;2023-07-13T13:43:52;24.50;98.20
56512;DHT22;42408;53.238;5.686;2023-07-13T13:46:20;24.60;97.50
56512;DHT22;42408;53.238;5.686;2023-07-13T13:48:47;24.60;97.80
56512;DHT22;42408;53.238;5.686;2023-07-13T13:51:20;24.70;97.50
56512;DHT22;42408;53.238;5.686;2023-07-13T13:53:46;24.80;98.60
56512;DHT22;42408;53.238;5.686;2023-07-13T13:56:13;24.90;98.70
56512;DHT22;42408;53.238;5.686;2023-07-13T13:58:39;25.00;98.00
56512;DHT22;42408;53.238;5.686;2023-07-13T14:01:08;25.10;97.20
56512;DHT22;42408;53.238;5.686;2023-07-13T14:03:37;25.10;97.10
56512;DHT22;42408;53.238;5.686;2023-07-13T14:06:03;25.10;97.80
56512;DHT22;42408;53.238;5.686;2023-07-13T14:08:28;25.10;97.30
56512;DHT22;42408;53.238;5.686;2023-07-13T14:10:55;25.00;96.90
56512;DHT22;42408;53.238;5.686;2023-07-13T14:13:32;25.00;96.70
56512;DHT22;42408;53.238;5.686;2023-07-13T14:16:01;25.10;97.00
56512;DHT22;42408;53.238;5.686;2023-07-13T14:18:26;25.00;96.60
56512;DHT22;42408;53.238;5.686;2023-07-13T14:20:52;25.10;96.40
56512;DHT22;42408;53.238;5.686;2023-07-13T14:23:17;25.10;96.70
56512;DHT22;42408;53.238;5.686;2023-07-13T14:25:44;25.00;97.00
56512;DHT22;42408;53.238;5.686;2023-07-13T14:28:28;25.10;97.10
56512;DHT22;42408;53.238;5.686;2023-07-13T14:30:54;25.20;96.80
56512;DHT22;42408;53.238;5.686;2023-07-13T14:33:22;25.20;97.20
56512;DHT22;42408;53.238;5.686;2023-07-13T14:35:49;25.20;97.30
56512;DHT22;42408;53.238;5.686;2023-07-13T14:38:15;25.20;97.30
56512;DHT22;42408;53.238;5.686;2023-07-13T14:40:42;25.10;97.60
56512;DHT22;42408;53.238;5.686;2023-07-13T14:43:11;25.00;97.30
56512;DHT22;42408;53.238;5.686;2023-07-13T14:45:41;24.90;97.50
56512;DHT22;42408;53.238;5.686;2023-07-13T14:48:15;24.80;97.20
56512;DHT22;42408;53.238;5.686;2023-07-13T14:50:41;24.70;97.80
56512;DHT22;42408;53.238;5.686;2023-07-13T14:53:09;24.70;97.90
56512;DHT22;42408;53.238;5.686;2023-07-13T14:55:35;24.70;98.20
56512;DHT22;42408;53.238;5.686;2023-07-13T14:58:01;24.70;97.80
56512;DHT22;42408;53.238;5.686;2023-07-13T15:00:26;24.70;98.50
56512;DHT22;42408;53.238;5.686;2023-07-13T15:02:53;24.70;98.00
56512;DHT22;42408;53.238;5.686;2023-07-13T15:05:21;24.70;97.90
56512;DHT22;42408;53.238;5.686;2023-07-13T15:07:48;24.70;97.80
56512;DHT22;42408;53.238;5.686;2023-07-13T15:10:19;24.70;97.50
56512;DHT22;42408;53.238;5.686;2023-07-13T15:12:45;24.70;97.50
56512;DHT22;42408;53.238;5.686;2023-07-13T15:15:11;24.60;98.20
56512;DHT22;42408;53.238;5.686;2023-07-13T15:17:41;24.60;97.50
56512;DHT22;42408;53.238;5.686;2023-07-13T15:22:42;24.70;98.50
56512;DHT22;42408;53.238;5.686;2023-07-13T15:25:11;24.70;98.10
56512;DHT22;42408;53.238;5.686;2023-07-13T15:27:39;24.60;96.90
56512;DHT22;42408;53.238;5.686;2023-07-13T15:30:05;24.50;97.50
56512;DHT22;42408;53.238;5.686;2023-07-13T15:32:30;24.30;98.00
56512;DHT22;42408;53.238;5.686;2023-07-13T15:34:56;24.10;98.80
56512;DHT22;42408;53.238;5.686;2023-07-13T15:37:22;23.90;99.10
56512;DHT22;42408;53.238;5.686;2023-07-13T15:39:47;23.80;99.00
56512;DHT22;42408;53.238;5.686;2023-07-13T15:42:21;23.70;99.10
56512;DHT22;42408;53.238;5.686;2023-07-13T15:44:47;23.70;99.10
56512;DHT22;42408;53.238;5.686;2023-07-13T15:47:13;23.70;99.20
56512;DHT22;42408;53.238;5.686;2023-07-13T15:49:40;23.80;99.60
56512;DHT22;42408;53.238;5.686;2023-07-13T15:52:11;23.80;99.60
56512;DHT22;42408;53.238;5.686;2023-07-13T15:54:41;23.70;99.00
56512;DHT22;42408;53.238;5.686;2023-07-13T15:57:08;23.50;99.90
56512;DHT22;42408;53.238;5.686;2023-07-13T15:59:34;23.50;99.80
56512;DHT22;42408;53.238;5.686;2023-07-13T16:02:00;23.50;99.50
56512;DHT22;42408;53.238;5.686;2023-07-13T16:04:27;23.50;99.90
56512;DHT22;42408;53.238;5.686;2023-07-13T16:06:53;23.40;99.60
56512;DHT22;42408;53.238;5.686;2023-07-13T16:09:22;23.40;99.90
56512;DHT22;42408;53.238;5.686;2023-07-13T16:11:48;23.30;99.90
56512;DHT22;42408;53.238;5.686;2023-07-13T16:14:14;23.30;99.90
56512;DHT22;42408;53.238;5.686;2023-07-13T16:16:40;23.30;99.90
56512;DHT22;42408;53.238;5.686;2023-07-13T16:19:06;23.30;99.90